Huvudsida
METAR-TAF:

METAR-TAF

Flygplatser :

Rand Airport

Germiston, Sydafrika

latitud: 26-14-33S, longitud: 028-09-04E, höjd: 1671 m

Aktuellt väderrapport

Denna rapport gjordes för 9 timmar och 7 minuter sedan, klockan 09:00 UTC
Vind 8 kt från nordväst
Temperatur 17°C
Fuktighet 42%
Tryck 1028 hPa
Sikt 10 km eller mer
Inga moln under 1 500 m eller inga cumulonimbus

METAR: FAGM 230900Z 31008KT CAVOK 17/04 Q1028

Tid: 20:07 (18:07 UTC)


TAF: saknas

Aktuella väderrapporter och prognoser från 4000 flygplatser (METAR- och TAF-rapporter).

De tillgängliga stationerna syns som gula och röda prickar på kartan.

För musen över prickarna för att se namnen på stationerna.

Klicka sedan för att få väderrapporter och prognoser.

För att ändra kartan: Klicka på de gröna knapparna med ett svart kors på för att zooma in; den gröna knappen med ett streck på för att zooma ut; eller på de gröna pilarna för angränsande kartor.


METAR-TAF: